Terminal Aerodrome Forecast
Issued by NWS

Home | Current Version | Previous Version | Text Only | Print | Product List | Glossary On
Versions: 1 2 3 4 5 6 7 8 9 10 11 12 13 14 15 16 17 18
789
FTUS44 KLZK 300540
TAFHRO
TAF
KHRO 300540Z 3006/3106 18008KT P6SM VCTS SCT040CB OVC080
      TEMPO 3006/3007 6SM -TSRA BKN040CB
     FM300800 24007KT P6SM BKN050 BKN100
     FM301600 23008G16KT P6SM VCSH OVC025
     FM310000 27006KT P6SM OVC015=

USA.gov is the U.S. government's official web portal to all federal, state and local government web resources and services.